Time,TemperatureF,DewpointF,PressureIn,WindDirection,WindDirectionDegrees,WindSpeedMPH,WindSpeedGustMPH,Humidity,HourlyPrecipIn,Conditions,Clouds,dailyrainin,SoftwareType,DateUTC
2013-01-11 00:00:00,36.4,33.0,30.12,ESE,115,5.0,9.0,86,0.01,,,0.04,weatherlink.com 1.10,2013-01-11 05:00:00,
2013-01-11 00:01:00,36.4,32.6,30.12,East,101,5.0,8.0,86,0.02,,SKC,0.04,VWS V14.01,2013-01-11 05:01:00,
2013-01-11 00:04:00,36.4,32.6,30.12,East,88,6.0,7.0,86,0.01,,SKC,0.00,VWS V14.01,2013-01-11 05:04:00,
2013-01-11 00:09:00,36.3,32.5,30.12,East,89,6.0,8.0,86,0.01,,SKC,0.00,VWS V14.01,2013-01-11 05:09:00,
2013-01-11 00:14:00,36.5,32.7,30.11,East,89,6.0,9.0,86,0.03,,SKC,0.02,VWS V14.01,2013-01-11 05:14:00,
2013-01-11 00:19:00,36.4,32.9,30.11,ESE,104,8.0,9.0,87,0.03,,SKC,0.02,VWS V14.01,2013-01-11 05:19:00,
2013-01-11 00:25:00,36.4,32.9,30.11,East,94,6.0,10.0,87,0.04,,SKC,0.03,VWS V14.01,2013-01-11 05:25:00,
2013-01-11 00:29:00,36.5,33.0,30.11,ENE,78,5.0,9.0,87,0.05,,SKC,0.04,VWS V14.01,2013-01-11 05:29:00,
2013-01-11 00:30:00,36.5,33.0,30.10,East,80,9.0,9.0,87,0.05,,SKC,0.04,VWS V14.01,2013-01-11 05:30:00,
2013-01-11 00:35:00,36.5,33.0,30.10,ENE,68,8.0,11.0,87,0.06,,SKC,0.05,VWS V14.01,2013-01-11 05:35:00,
2013-01-11 00:40:00,36.6,33.1,30.10,ESE,104,5.0,12.0,87,0.07,,SKC,0.06,VWS V14.01,2013-01-11 05:40:00,
2013-01-11 00:45:00,36.6,33.4,30.09,East,88,7.0,8.0,88,0.09,,SKC,0.08,VWS V14.01,2013-01-11 05:45:00,
2013-01-11 00:50:00,36.4,33.2,30.09,East,98,6.0,10.0,88,0.11,,SKC,0.10,VWS V14.01,2013-01-11 05:50:00,
2013-01-11 00:55:00,36.3,33.4,30.08,East,93,7.0,7.0,89,0.11,,SKC,0.10,VWS V14.01,2013-01-11 05:55:00,
2013-01-11 01:00:00,36.2,33.3,30.08,East,91,6.0,7.0,89,0.11,,SKC,0.10,VWS V14.01,2013-01-11 06:00:00,
2013-01-11 01:05:00,36.2,33.6,30.08,East,94,7.0,7.0,90,0.10,,SKC,0.10,VWS V14.01,2013-01-11 06:05:00,
2013-01-11 01:10:00,36.3,33.7,30.08,ENE,76,2.0,5.0,90,0.11,,SKC,0.11,VWS V14.01,2013-01-11 06:10:00,
2013-01-11 01:15:00,36.3,33.7,30.08,East,96,3.0,6.0,90,0.11,,SKC,0.11,VWS V14.01,2013-01-11 06:15:00,
2013-01-11 01:20:00,36.5,33.8,30.07,East,92,7.0,7.0,90,0.11,,SKC,0.11,VWS V14.01,2013-01-11 06:20:00,
2013-01-11 01:25:00,36.5,33.8,30.07,East,79,5.0,5.0,90,0.11,,SKC,0.11,VWS V14.01,2013-01-11 06:25:00,
2013-01-11 01:30:00,36.5,33.8,30.07,East,94,5.0,6.0,90,0.11,,SKC,0.11,VWS V14.01,2013-01-11 06:30:00,
2013-01-11 01:35:00,36.6,34.0,30.06,East,86,3.0,5.0,90,0.07,,SKC,0.11,VWS V14.01,2013-01-11 06:35:00,
2013-01-11 01:40:00,36.7,34.0,30.06,East,79,1.0,2.0,90,0.07,,SKC,0.11,VWS V14.01,2013-01-11 06:40:00,
2013-01-11 01:45:00,36.8,34.2,30.06,East,89,3.0,3.0,90,0.07,,SKC,0.11,VWS V14.01,2013-01-11 06:45:00,
2013-01-11 01:50:00,36.8,34.2,30.06,East,94,2.0,3.0,90,0.07,,SKC,0.11,VWS V14.01,2013-01-11 06:50:00,
2013-01-11 01:55:00,36.8,33.9,30.06,East,98,1.0,3.0,89,0.07,,SKC,0.11,VWS V14.01,2013-01-11 06:55:00,
2013-01-11 02:00:00,36.8,33.9,30.06,East,98,0.0,1.0,89,0.07,,SKC,0.11,VWS V14.01,2013-01-11 07:00:00,
2013-01-11 02:05:00,36.8,34.2,30.05,East,95,2.0,3.0,90,0.01,,SKC,0.11,VWS V14.01,2013-01-11 07:05:00,
2013-01-11 02:10:00,36.8,34.2,30.05,East,89,1.0,2.0,90,0.01,,SKC,0.11,VWS V14.01,2013-01-11 07:10:00,
2013-01-11 02:15:00,36.8,34.2,30.05,East,88,1.0,2.0,90,0.01,,SKC,0.11,VWS V14.01,2013-01-11 07:15:00,
2013-01-11 02:20:00,36.8,34.2,30.05,East,88,0.0,2.0,90,0.01,,SKC,0.11,VWS V14.01,2013-01-11 07:20:00,
2013-01-11 02:25:00,36.9,34.2,30.05,East,81,2.0,3.0,90,0.01,,SKC,0.11,VWS V14.01,2013-01-11 07:25:00,
2013-01-11 02:30:00,36.9,34.2,30.04,ENE,66,3.0,3.0,90,0.01,,SKC,0.11,VWS V14.01,2013-01-11 07:30:00,
2013-01-11 02:35:00,36.9,34.2,30.04,NE,54,2.0,3.0,90,0.00,,SKC,0.11,VWS V14.01,2013-01-11 07:35:00,
2013-01-11 02:40:00,36.9,34.2,30.03,NE,56,3.0,4.0,90,0.00,,SKC,0.11,VWS V14.01,2013-01-11 07:40:00,
2013-01-11 02:45:00,37.1,34.4,30.02,ENE,63,5.0,5.0,90,0.00,,SKC,0.11,VWS V14.01,2013-01-11 07:45:00,
2013-01-11 02:50:00,37.0,34.3,30.02,ENE,68,5.0,5.0,90,0.00,,SKC,0.11,VWS V14.01,2013-01-11 07:50:00,
2013-01-11 02:55:00,36.8,34.2,30.02,ENE,72,4.0,7.0,90,0.00,,SKC,0.11,VWS V14.01,2013-01-11 07:55:00,
2013-01-11 03:00:00,36.9,34.2,30.01,ENE,65,4.0,7.0,90,0.00,,SKC,0.11,VWS V14.01,2013-01-11 08:00:00,
2013-01-11 03:05:00,36.9,34.2,30.01,ENE,71,2.0,4.0,90,0.00,,SKC,0.11,VWS V14.01,2013-01-11 08:05:00,
2013-01-11 03:10:00,37.0,34.6,30.01,ENE,67,2.0,2.0,91,0.00,,SKC,0.11,VWS V14.01,2013-01-11 08:10:00,
2013-01-11 03:15:00,37.1,34.4,30.01,ENE,61,2.0,2.0,90,0.00,,SKC,0.11,VWS V14.01,2013-01-11 08:15:00,
2013-01-11 03:20:00,37.2,34.5,30.01,ENE,63,2.0,3.0,90,0.00,,SKC,0.11,VWS V14.01,2013-01-11 08:20:00,
2013-01-11 03:25:00,37.2,34.5,30.00,ENE,61,4.0,4.0,90,0.00,,SKC,0.11,VWS V14.01,2013-01-11 08:25:00,
2013-01-11 03:30:00,37.2,34.5,30.00,NE,53,2.0,3.0,90,0.00,,SKC,0.11,VWS V14.01,2013-01-11 08:30:00,
2013-01-11 03:35:00,37.3,34.9,30.00,ENE,58,2.0,3.0,91,0.00,,SKC,0.11,VWS V14.01,2013-01-11 08:35:00,
2013-01-11 03:40:00,37.4,35.0,29.99,NE,56,2.0,3.0,91,0.00,,SKC,0.11,VWS V14.01,2013-01-11 08:40:00,
2013-01-11 03:45:00,37.5,35.1,29.99,NE,55,4.0,4.0,91,0.00,,SKC,0.11,VWS V14.01,2013-01-11 08:45:00,
2013-01-11 03:50:00,37.7,35.3,29.99,ENE,71,2.0,6.0,91,0.00,,SKC,0.11,VWS V14.01,2013-01-11 08:50:00,
2013-01-11 03:55:00,37.7,35.3,29.98,ENE,74,0.0,3.0,91,0.00,,SKC,0.11,VWS V14.01,2013-01-11 08:55:00,
2013-01-11 04:00:00,37.8,35.1,29.98,ENE,66,2.0,3.0,90,0.00,,SKC,0.11,VWS V14.01,2013-01-11 09:00:00,
2013-01-11 04:05:00,37.7,35.0,29.97,NE,54,2.0,3.0,90,0.00,,SKC,0.11,VWS V14.01,2013-01-11 09:05:00,
2013-01-11 04:10:00,37.7,35.0,29.97,ENE,64,3.0,3.0,90,0.00,,SKC,0.11,VWS V14.01,2013-01-11 09:10:00,
2013-01-11 04:15:00,37.8,35.1,29.96,ENE,71,2.0,4.0,90,0.00,,SKC,0.11,VWS V14.01,2013-01-11 09:15:00,
2013-01-11 04:20:00,37.9,35.2,29.96,ENE,76,2.0,2.0,90,0.00,,SKC,0.11,VWS V14.01,2013-01-11 09:20:00,
2013-01-11 04:25:00,37.8,35.1,29.95,ENE,78,2.0,3.0,90,0.00,,SKC,0.11,VWS V14.01,2013-01-11 09:25:00,
2013-01-11 04:30:00,38.2,35.8,29.95,East,101,3.0,6.0,91,0.00,,SKC,0.11,VWS V14.01,2013-01-11 09:30:00,
2013-01-11 04:35:00,39.1,36.7,29.95,East,82,1.0,6.0,91,0.00,,SKC,0.11,VWS V14.01,2013-01-11 09:35:00,
2013-01-11 04:40:00,39.4,37.0,29.94,East,86,1.0,5.0,91,0.00,,SKC,0.11,VWS V14.01,2013-01-11 09:40:00,
2013-01-11 04:45:00,39.5,36.8,29.94,East,86,3.0,5.0,90,0.00,,SKC,0.11,VWS V14.01,2013-01-11 09:45:00,
2013-01-11 04:50:00,39.6,36.9,29.94,East,90,1.0,3.0,90,0.00,,SKC,0.11,VWS V14.01,2013-01-11 09:50:00,
2013-01-11 04:55:00,39.7,37.0,29.93,East,100,2.0,3.0,90,0.00,,SKC,0.11,VWS V14.01,2013-01-11 09:55:00,
2013-01-11 05:00:00,39.8,37.1,29.93,East,95,3.0,3.0,90,0.00,,SKC,0.11,VWS V14.01,2013-01-11 10:00:00,
2013-01-11 05:05:00,40.0,37.3,29.92,ESE,105,3.0,5.0,90,0.00,,SKC,0.11,VWS V14.01,2013-01-11 10:05:00,
2013-01-11 05:10:00,40.2,37.5,29.92,ESE,117,2.0,3.0,90,0.00,,SKC,0.11,VWS V14.01,2013-01-11 10:10:00,
2013-01-11 05:15:00,40.3,37.6,29.92,SE,133,1.0,2.0,90,0.00,,SKC,0.11,VWS V14.01,2013-01-11 10:15:00,
2013-01-11 05:21:00,40.6,37.9,29.92,SE,133,0.0,2.0,90,0.00,,SKC,0.11,VWS V14.01,2013-01-11 10:21:00,
2013-01-11 05:26:00,40.9,38.5,29.92,SE,133,1.0,2.0,91,0.00,,SKC,0.11,VWS V14.01,2013-01-11 10:26:00,
2013-01-11 05:30:00,41.1,38.7,29.92,SE,133,0.0,2.0,91,0.00,,SKC,0.11,VWS V14.01,2013-01-11 10:30:00,
2013-01-11 05:31:00,41.1,38.7,29.92,SE,133,0.0,2.0,91,0.00,,SKC,0.11,VWS V14.01,2013-01-11 10:31:00,
2013-01-11 05:36:00,41.4,39.0,29.92,SE,134,0.0,2.0,91,0.01,,SKC,0.12,VWS V14.01,2013-01-11 10:36:00,
2013-01-11 05:41:00,41.5,39.1,29.91,SE,134,1.0,3.0,91,0.01,,SKC,0.12,VWS V14.01,2013-01-11 10:41:00,
2013-01-11 05:46:00,41.7,39.3,29.91,SE,146,0.0,2.0,91,0.02,,SKC,0.13,VWS V14.01,2013-01-11 10:46:00,
2013-01-11 05:51:00,42.4,40.2,29.92,SSE,160,0.0,1.0,92,0.03,,SKC,0.14,VWS V14.01,2013-01-11 10:51:00,
2013-01-11 05:56:00,42.7,40.5,29.93,South,187,5.0,5.0,92,0.04,,SKC,0.15,VWS V14.01,2013-01-11 10:56:00,
2013-01-11 06:00:00,43.6,41.4,29.93,South,191,6.0,11.0,92,0.06,,SKC,0.17,VWS V14.01,2013-01-11 11:00:00,
2013-01-11 06:01:00,43.5,41.3,29.93,SSE,168,2.0,11.0,92,0.06,,SKC,0.17,VWS V14.01,2013-01-11 11:01:00,
2013-01-11 06:06:00,44.2,42.0,29.92,SSW,196,6.0,8.0,92,0.09,,SKC,0.20,VWS V14.01,2013-01-11 11:06:00,
2013-01-11 06:11:00,44.5,42.3,29.94,West,259,6.0,6.0,92,0.12,,SKC,0.23,VWS V14.01,2013-01-11 11:11:00,
2013-01-11 06:16:00,44.3,42.1,29.93,WSW,244,3.0,4.0,92,0.16,,SKC,0.27,VWS V14.01,2013-01-11 11:16:00,
2013-01-11 06:21:00,44.5,42.3,29.93,SW,223,3.0,4.0,92,0.24,,SKC,0.35,VWS V14.01,2013-01-11 11:21:00,
2013-01-11 06:26:00,44.7,42.5,29.94,West,261,5.0,12.0,92,0.32,,SKC,0.43,VWS V14.01,2013-01-11 11:26:00,
2013-01-11 06:30:00,44.8,42.6,29.93,WSW,250,8.0,8.0,92,0.40,,SKC,0.51,VWS V14.01,2013-01-11 11:30:00,
2013-01-11 06:31:00,44.8,42.6,29.93,WSW,248,5.0,5.0,92,0.39,,SKC,0.50,VWS V14.01,2013-01-11 11:31:00,
2013-01-11 06:36:00,44.7,42.5,29.94,SSW,209,7.0,8.0,92,0.44,,SKC,0.55,VWS V14.01,2013-01-11 11:36:00,
2013-01-11 06:41:00,44.5,42.3,29.94,SW,228,6.0,6.0,92,0.44,,SKC,0.55,VWS V14.01,2013-01-11 11:41:00,
2013-01-11 06:46:00,44.8,42.9,29.93,SSW,210,3.0,5.0,93,0.44,,SKC,0.55,VWS V14.01,2013-01-11 11:46:00,
2013-01-11 06:51:00,45.0,43.1,29.93,South,177,0.0,0.0,93,0.44,,SKC,0.55,VWS V14.01,2013-01-11 11:51:00,
2013-01-11 06:56:00,44.7,42.8,29.92,SSE,148,2.0,3.0,93,0.44,,SKC,0.55,VWS V14.01,2013-01-11 11:56:00,
2013-01-11 07:00:00,45.0,43.1,29.91,SSE,149,0.0,3.0,93,0.44,,SKC,0.55,VWS V14.01,2013-01-11 12:00:00,
2013-01-11 07:01:00,44.9,43.0,29.91,SSE,149,1.0,3.0,93,0.44,,SKC,0.55,VWS V14.01,2013-01-11 12:01:00,
2013-01-11 07:06:00,44.7,42.8,29.91,SE,129,2.0,5.0,93,0.38,,SKC,0.55,VWS V14.01,2013-01-11 12:06:00,
2013-01-11 07:11:00,44.5,42.6,29.91,SE,130,2.0,5.0,93,0.38,,SKC,0.55,VWS V14.01,2013-01-11 12:11:00,
2013-01-11 07:16:00,44.6,42.7,29.90,ESE,122,2.0,4.0,93,0.38,,SKC,0.55,VWS V14.01,2013-01-11 12:16:00,
2013-01-11 07:21:00,45.2,43.3,29.91,SSE,161,5.0,9.0,93,0.39,,SKC,0.56,VWS V14.01,2013-01-11 12:21:00,
2013-01-11 07:26:00,45.6,44.0,29.91,SSE,163,3.0,5.0,94,0.40,,SKC,0.57,VWS V14.01,2013-01-11 12:26:00,
2013-01-11 07:30:00,46.2,44.6,29.91,SSE,168,1.0,4.0,94,0.40,,SKC,0.57,VWS V14.01,2013-01-11 12:30:00,
2013-01-11 07:31:00,46.2,44.6,29.91,SSE,168,1.0,4.0,94,0.40,,SKC,0.57,VWS V14.01,2013-01-11 12:31:00,
2013-01-11 07:36:00,46.8,45.2,29.91,South,171,5.0,7.0,94,0.06,,SKC,0.57,VWS V14.01,2013-01-11 12:36:00,
2013-01-11 07:41:00,47.0,45.4,29.91,SSE,152,6.0,8.0,94,0.06,,SKC,0.57,VWS V14.01,2013-01-11 12:41:00,
2013-01-11 07:46:00,47.0,45.4,29.90,SE,125,5.0,10.0,94,0.06,,SKC,0.57,VWS V14.01,2013-01-11 12:46:00,
2013-01-11 07:51:00,46.8,45.2,29.89,South,171,6.0,10.0,94,0.06,,SKC,0.57,VWS V14.01,2013-01-11 12:51:00,
2013-01-11 07:56:00,47.0,45.4,29.89,SSE,156,4.0,9.0,94,0.07,,SKC,0.58,VWS V14.01,2013-01-11 12:56:00,
2013-01-11 08:00:00,47.1,45.5,29.89,SSE,168,8.0,10.0,94,0.07,,SKC,0.58,VWS V14.01,2013-01-11 13:00:00,
2013-01-11 08:01:00,47.2,45.6,29.88,South,178,6.0,10.0,94,0.03,,SKC,0.58,VWS V14.01,2013-01-11 13:01:00,
2013-01-11 08:14:00,47.8,46.0,29.85,SE,137,4.0,18.0,94,0.04,,,0.59,weatherlink.com 1.10,2013-01-11 13:14:00,
2013-01-11 08:29:00,47.9,46.0,29.83,SE,128,10.0,18.0,94,0.03,,,0.60,weatherlink.com 1.10,2013-01-11 13:29:00,
2013-01-11 08:36:00,48.5,46.9,29.83,ESE,113,13.0,13.0,94,0.05,,SKC,0.60,VWS V14.01,2013-01-11 13:36:00,
2013-01-11 08:41:00,48.9,47.2,29.83,SE,139,11.0,12.0,94,0.05,,SKC,0.60,VWS V14.01,2013-01-11 13:41:00,
2013-01-11 08:46:00,49.2,47.5,29.82,SSE,155,12.0,15.0,94,0.05,,SKC,0.60,VWS V14.01,2013-01-11 13:46:00,
2013-01-11 08:51:00,49.2,47.5,29.82,SE,143,8.0,10.0,94,0.05,,SKC,0.60,VWS V14.01,2013-01-11 13:51:00,
2013-01-11 08:56:00,49.1,47.5,29.80,ESE,105,14.0,14.0,94,0.05,,SKC,0.60,VWS V14.01,2013-01-11 13:56:00,
2013-01-11 09:00:00,48.9,47.2,29.81,SE,130,10.0,10.0,94,0.05,,SKC,0.60,VWS V14.01,2013-01-11 14:00:00,
2013-01-11 09:01:00,48.9,47.2,29.81,SSE,153,6.0,10.0,94,0.05,,SKC,0.60,VWS V14.01,2013-01-11 14:01:00,
2013-01-11 09:06:00,49.2,47.5,29.81,SSE,155,7.0,11.0,94,0.02,,SKC,0.60,VWS V14.01,2013-01-11 14:06:00,
2013-01-11 09:17:00,49.2,48.0,29.81,ESE,105,9.0,15.0,94,0.01,,,0.60,weatherlink.com 1.10,2013-01-11 14:17:00,
2013-01-11 09:30:00,49.2,47.5,29.83,SSE,158,7.0,17.0,94,0.02,,SKC,0.60,VWS V14.01,2013-01-11 14:30:00,
2013-01-11 09:32:00,49.2,48.0,29.82,South,171,5.0,9.0,94,0.00,,,0.60,weatherlink.com 1.10,2013-01-11 14:32:00,
2013-01-11 09:47:00,50.2,48.0,29.84,South,180,6.0,13.0,93,0.00,,,0.60,weatherlink.com 1.10,2013-01-11 14:47:00,
2013-01-11 10:00:00,51.1,49.2,29.85,South,180,6.0,22.0,93,0.00,,SKC,0.60,VWS V14.01,2013-01-11 15:00:00,
2013-01-11 10:02:00,51.1,49.0,29.84,SSW,192,10.0,22.0,93,0.00,,,0.60,weatherlink.com 1.10,2013-01-11 15:02:00,
2013-01-11 10:17:00,51.0,49.0,29.85,South,186,10.0,24.0,92,0.00,,,0.60,weatherlink.com 1.10,2013-01-11 15:17:00,
2013-01-11 10:30:00,51.2,49.0,29.84,South,180,9.0,24.0,92,0.00,,SKC,0.60,VWS V14.01,2013-01-11 15:30:00,
2013-01-11 10:32:00,51.2,49.0,29.84,SSE,166,5.0,17.0,92,0.00,,,0.60,weatherlink.com 1.10,2013-01-11 15:32:00,
2013-01-11 10:47:00,52.2,50.0,29.85,South,191,8.0,25.0,92,0.00,,,0.60,weatherlink.com 1.10,2013-01-11 15:47:00,
2013-01-11 11:00:00,52.6,50.0,29.85,South,180,12.0,25.0,91,0.00,,SKC,0.60,VWS V14.01,2013-01-11 16:00:00,
2013-01-11 11:02:00,52.6,50.0,29.85,South,183,21.0,25.0,91,0.00,,,0.60,weatherlink.com 1.10,2013-01-11 16:02:00,
2013-01-11 11:17:00,52.5,50.0,29.85,South,189,17.0,22.0,92,0.01,,,0.61,weatherlink.com 1.10,2013-01-11 16:17:00,
2013-01-11 11:30:00,52.9,50.6,29.85,South,180,11.0,23.0,92,0.01,,SKC,0.61,VWS V14.01,2013-01-11 16:30:00,
2013-01-11 11:32:00,52.9,51.0,29.85,South,180,6.0,19.0,92,0.01,,,0.61,weatherlink.com 1.10,2013-01-11 16:32:00,
2013-01-11 11:47:00,53.0,51.0,29.85,WSW,241,7.0,16.0,92,0.01,,,0.61,weatherlink.com 1.10,2013-01-11 16:47:00,
2013-01-11 12:00:00,53.9,51.6,29.84,SSW,202,8.0,19.0,92,0.01,,SKC,0.61,VWS V14.01,2013-01-11 17:00:00,
2013-01-11 12:02:00,54.0,52.0,29.84,SSW,199,9.0,16.0,92,0.01,,,0.61,weatherlink.com 1.10,2013-01-11 17:02:00,
2013-01-11 12:17:00,55.6,53.0,29.84,SSW,206,7.0,17.0,92,0.00,,,0.61,weatherlink.com 1.10,2013-01-11 17:17:00,
2013-01-11 12:30:00,56.5,53.6,29.84,SSW,202,9.0,21.0,90,0.01,,SKC,0.61,VWS V14.01,2013-01-11 17:30:00,
2013-01-11 12:32:00,56.6,54.0,29.83,SW,219,11.0,20.0,89,0.00,,,0.61,weatherlink.com 1.10,2013-01-11 17:32:00,
2013-01-11 12:47:00,57.8,54.0,29.83,SW,235,13.0,21.0,86,0.00,,,0.61,weatherlink.com 1.10,2013-01-11 17:47:00,
2013-01-11 13:00:00,57.8,53.3,29.83,SW,225,13.0,24.0,85,0.00,,SKC,0.61,VWS V14.01,2013-01-11 18:00:00,
2013-01-11 13:03:00,57.7,53.0,29.83,WSW,244,13.0,24.0,85,0.00,,,0.61,weatherlink.com 1.10,2013-01-11 18:03:00,
2013-01-11 13:30:00,58.6,52.8,29.82,SW,225,13.0,23.0,81,0.00,,SKC,0.61,VWS V14.01,2013-01-11 18:30:00,
2013-01-11 13:33:00,58.7,53.0,29.82,SW,224,13.0,23.0,81,0.00,,,0.61,weatherlink.com 1.10,2013-01-11 18:33:00,
2013-01-11 13:48:00,59.0,53.0,29.82,SSW,198,16.0,21.0,80,0.00,,,0.61,weatherlink.com 1.10,2013-01-11 18:48:00,
2013-01-11 14:00:00,58.0,51.5,29.83,SW,225,13.0,26.0,79,0.00,,SKC,0.61,VWS V14.01,2013-01-11 19:00:00,
2013-01-11 14:18:00,57.4,51.0,29.84,WSW,240,12.0,21.0,80,0.00,,,0.61,weatherlink.com 1.10,2013-01-11 19:18:00,
2013-01-11 14:30:00,58.3,52.2,29.84,WSW,248,13.0,24.0,80,0.00,,SKC,0.61,VWS V14.01,2013-01-11 19:30:00,
2013-01-11 14:33:00,58.6,52.0,29.84,WSW,238,10.0,17.0,80,0.00,,,0.61,weatherlink.com 1.10,2013-01-11 19:33:00,
2013-01-11 14:48:00,58.1,52.0,29.84,SW,235,6.0,16.0,80,0.00,,,0.61,weatherlink.com 1.10,2013-01-11 19:48:00,
2013-01-11 15:00:00,58.5,52.4,29.85,WSW,248,9.0,17.0,80,0.00,,SKC,0.61,VWS V14.01,2013-01-11 20:00:00,
2013-01-11 15:03:00,58.5,52.0,29.85,SW,221,8.0,14.0,80,0.00,,,0.61,weatherlink.com 1.10,2013-01-11 20:03:00,
2013-01-11 15:18:00,58.3,51.0,29.85,SW,225,11.0,23.0,78,0.00,,,0.61,weatherlink.com 1.10,2013-01-11 20:18:00,
2013-01-11 15:30:00,58.0,51.2,29.85,SW,225,11.0,22.0,78,0.00,,SKC,0.61,VWS V14.01,2013-01-11 20:30:00,
2013-01-11 15:33:00,58.0,51.0,29.86,SSW,211,7.0,18.0,78,0.00,,,0.61,weatherlink.com 1.10,2013-01-11 20:33:00,
2013-01-11 15:48:00,57.9,51.0,29.86,SW,225,8.0,21.0,77,0.00,,,0.61,weatherlink.com 1.10,2013-01-11 20:48:00,
2013-01-11 16:00:00,57.7,50.2,29.86,SW,225,10.0,20.0,76,0.00,,SKC,0.61,VWS V14.01,2013-01-11 21:00:00,
2013-01-11 16:30:00,57.2,50.1,29.87,SW,225,9.0,16.0,77,0.00,,SKC,0.61,VWS V14.01,2013-01-11 21:30:00,
2013-01-11 16:33:00,57.1,50.0,29.87,SW,228,10.0,16.0,77,0.00,,,0.61,weatherlink.com 1.10,2013-01-11 21:33:00,
2013-01-11 16:48:00,55.6,49.0,29.88,SW,223,9.0,14.0,77,0.00,,,0.61,weatherlink.com 1.10,2013-01-11 21:48:00,
2013-01-11 17:00:00,54.6,47.9,29.87,SW,225,8.0,18.0,78,0.00,,SKC,0.61,VWS V14.01,2013-01-11 22:00:00,
2013-01-11 17:03:00,54.5,48.0,29.87,WSW,249,5.0,11.0,79,0.00,,,0.61,weatherlink.com 1.10,2013-01-11 22:03:00,
2013-01-11 17:18:00,53.7,48.0,29.87,SSW,209,2.0,11.0,80,0.00,,,0.61,weatherlink.com 1.10,2013-01-11 22:18:00,
2013-01-11 17:30:00,53.2,47.5,29.87,SW,225,6.0,11.0,81,0.00,,SKC,0.61,VWS V14.01,2013-01-11 22:30:00,
2013-01-11 17:33:00,53.0,47.0,29.87,SSW,204,6.0,7.0,81,0.00,,,0.61,weatherlink.com 1.10,2013-01-11 22:33:00,
2013-01-11 17:48:00,51.7,47.0,29.88,SSW,198,3.0,6.0,84,0.00,,,0.61,weatherlink.com 1.10,2013-01-11 22:48:00,
2013-01-11 18:00:00,50.8,46.5,29.88,SSW,202,3.0,7.0,85,0.00,,SKC,0.61,VWS V14.01,2013-01-11 23:00:00,
2013-01-11 18:03:00,50.8,47.0,29.89,SSW,203,2.0,7.0,85,0.00,,,0.61,weatherlink.com 1.10,2013-01-11 23:03:00,
2013-01-11 18:18:00,50.0,46.0,29.88,South,191,0.0,7.0,85,0.00,,,0.61,weatherlink.com 1.10,2013-01-11 23:18:00,
2013-01-11 18:30:00,49.2,45.5,29.89,SSW,202,3.0,7.0,87,0.00,,SKC,0.61,VWS V14.01,2013-01-11 23:30:00,
2013-01-11 18:33:00,49.2,46.0,29.89,South,188,1.0,5.0,87,0.00,,,0.61,weatherlink.com 1.10,2013-01-11 23:33:00,
2013-01-11 18:48:00,47.7,44.0,29.90,South,186,0.0,4.0,88,0.00,,,0.61,weatherlink.com 1.10,2013-01-11 23:48:00,
2013-01-11 19:00:00,46.0,42.7,29.90,South,180,0.0,4.0,88,0.00,,SKC,0.61,VWS V14.01,2013-01-12 00:00:00,
2013-01-11 19:03:00,45.9,43.0,29.89,SSE,150,1.0,1.0,89,0.00,,,0.61,weatherlink.com 1.10,2013-01-12 00:03:00,
2013-01-11 19:18:00,46.0,44.0,29.89,SSE,152,2.0,3.0,91,0.00,,,0.61,weatherlink.com 1.10,2013-01-12 00:18:00,
2013-01-11 19:30:00,46.0,43.5,29.90,SSE,158,1.0,3.0,91,0.00,,SKC,0.61,VWS V14.01,2013-01-12 00:30:00,
2013-01-11 19:33:00,46.1,44.0,29.89,SSE,159,0.0,3.0,91,0.00,,,0.61,weatherlink.com 1.10,2013-01-12 00:33:00,
2013-01-11 19:48:00,46.0,44.0,29.89,SSE,160,1.0,3.0,91,0.00,,,0.61,weatherlink.com 1.10,2013-01-12 00:48:00,
2013-01-11 20:00:00,46.0,43.8,29.88,SSE,158,1.0,4.0,92,0.00,,SKC,0.61,VWS V14.01,2013-01-12 01:00:00,
2013-01-11 20:03:00,46.1,44.0,29.88,SSE,158,1.0,4.0,92,0.00,,,0.61,weatherlink.com 1.10,2013-01-12 01:03:00,
2013-01-11 20:18:00,46.8,44.0,29.89,South,171,1.0,3.0,91,0.00,,,0.61,weatherlink.com 1.10,2013-01-12 01:18:00,
2013-01-11 20:30:00,46.8,44.3,29.88,SSE,158,1.0,4.0,91,0.00,,SKC,0.61,VWS V14.01,2013-01-12 01:30:00,
2013-01-11 20:33:00,47.0,45.0,29.88,SSE,159,1.0,4.0,91,0.00,,,0.61,weatherlink.com 1.10,2013-01-12 01:33:00,
2013-01-11 20:48:00,46.9,45.0,29.88,SSE,158,1.0,4.0,91,0.00,,,0.61,weatherlink.com 1.10,2013-01-12 01:48:00,
2013-01-11 21:00:00,47.4,44.9,29.88,SSE,158,1.0,5.0,91,0.00,,SKC,0.61,VWS V14.01,2013-01-12 02:00:00,
2013-01-11 21:03:00,47.6,45.0,29.88,SSE,158,3.0,4.0,91,0.00,,,0.61,weatherlink.com 1.10,2013-01-12 02:03:00,
2013-01-11 21:18:00,47.7,45.0,29.88,SSE,161,1.0,3.0,91,0.00,,,0.61,weatherlink.com 1.10,2013-01-12 02:18:00,
2013-01-11 21:30:00,47.7,45.2,29.88,SSE,158,1.0,4.0,91,0.00,,SKC,0.61,VWS V14.01,2013-01-12 02:30:00,
2013-01-11 21:33:00,47.8,45.0,29.88,South,171,0.0,3.0,91,0.00,,,0.61,weatherlink.com 1.10,2013-01-12 02:33:00,
2013-01-11 21:48:00,47.6,45.0,29.88,SSE,165,2.0,3.0,91,0.00,,,0.61,weatherlink.com 1.10,2013-01-12 02:48:00,
2013-01-11 22:00:00,46.7,44.2,29.88,SSE,158,1.0,4.0,91,0.00,,SKC,0.61,VWS V14.01,2013-01-12 03:00:00,
2013-01-11 22:03:00,46.7,44.0,29.88,SSE,147,2.0,3.0,91,0.00,,,0.61,weatherlink.com 1.10,2013-01-12 03:03:00,
2013-01-11 22:18:00,45.8,43.0,29.88,SSE,154,1.0,3.0,91,0.00,,,0.61,weatherlink.com 1.10,2013-01-12 03:18:00,
2013-01-11 22:30:00,45.5,43.3,29.87,SSE,158,2.0,5.0,92,0.00,,SKC,0.61,VWS V14.01,2013-01-12 03:30:00,
2013-01-11 22:33:00,45.6,44.0,29.87,SSE,154,2.0,5.0,92,0.00,,,0.61,weatherlink.com 1.10,2013-01-12 03:33:00,
2013-01-11 22:48:00,45.8,44.0,29.87,SSE,157,1.0,4.0,92,0.00,,,0.61,weatherlink.com 1.10,2013-01-12 03:48:00,
2013-01-11 23:00:00,46.4,44.2,29.88,SSE,158,2.0,6.0,92,0.00,,SKC,0.61,VWS V14.01,2013-01-12 04:00:00,
2013-01-11 23:03:00,46.3,44.0,29.87,South,173,1.0,4.0,92,0.00,,,0.61,weatherlink.com 1.10,2013-01-12 04:03:00,
2013-01-11 23:18:00,46.6,44.0,29.87,SSE,153,2.0,3.0,91,0.00,,,0.61,weatherlink.com 1.10,2013-01-12 04:18:00,
2013-01-11 23:30:00,46.5,44.0,29.87,SSE,158,1.0,3.0,91,0.00,,SKC,0.61,VWS V14.01,2013-01-12 04:30:00,
2013-01-11 23:33:00,46.6,44.0,29.87,SSE,163,0.0,3.0,91,0.00,,,0.61,weatherlink.com 1.10,2013-01-12 04:33:00,
2013-01-11 23:48:00,46.9,45.0,29.87,SSE,161,1.0,4.0,91,0.00,,,0.61,weatherlink.com 1.10,2013-01-12 04:48:00,